sensor_id;sensor_type;location;lat;lon;timestamp;temperature;humidity
27376;DHT22;14844;51.302;6.354;2022-10-16T00:01:12;12.20;99.90
27376;DHT22;14844;51.302;6.354;2022-10-16T00:03:41;12.20;99.90
27376;DHT22;14844;51.302;6.354;2022-10-16T00:06:09;12.30;99.90
27376;DHT22;14844;51.302;6.354;2022-10-16T00:08:35;12.30;99.90
27376;DHT22;14844;51.302;6.354;2022-10-16T00:11:13;12.20;99.90
27376;DHT22;14844;51.302;6.354;2022-10-16T00:13:40;12.20;99.90
27376;DHT22;14844;51.302;6.354;2022-10-16T00:16:06;12.20;99.90
27376;DHT22;14844;51.302;6.354;2022-10-16T00:18:32;12.20;99.90
27376;DHT22;14844;51.302;6.354;2022-10-16T00:21:09;12.10;99.90
27376;DHT22;14844;51.302;6.354;2022-10-16T00:23:35;12.20;99.90
27376;DHT22;14844;51.302;6.354;2022-10-16T00:26:06;12.20;99.90
27376;DHT22;14844;51.302;6.354;2022-10-16T00:28:32;12.20;99.90
27376;DHT22;14844;51.302;6.354;2022-10-16T00:30:58;12.20;99.90
27376;DHT22;14844;51.302;6.354;2022-10-16T00:33:24;12.20;99.90
27376;DHT22;14844;51.302;6.354;2022-10-16T00:35:50;12.20;99.90
27376;DHT22;14844;51.302;6.354;2022-10-16T00:38:16;12.30;99.90
27376;DHT22;14844;51.302;6.354;2022-10-16T00:40:42;12.30;99.90
27376;DHT22;14844;51.302;6.354;2022-10-16T00:43:51;12.20;99.90
27376;DHT22;14844;51.302;6.354;2022-10-16T00:46:29;12.20;99.90
27376;DHT22;14844;51.302;6.354;2022-10-16T00:49:04;12.20;99.90
27376;DHT22;14844;51.302;6.354;2022-10-16T00:51:38;12.20;99.90
27376;DHT22;14844;51.302;6.354;2022-10-16T00:54:09;12.20;99.90
27376;DHT22;14844;51.302;6.354;2022-10-16T00:56:35;12.20;99.90
27376;DHT22;14844;51.302;6.354;2022-10-16T00:59:04;12.10;99.90
27376;DHT22;14844;51.302;6.354;2022-10-16T01:01:31;12.10;99.90
27376;DHT22;14844;51.302;6.354;2022-10-16T01:03:57;12.10;99.90
27376;DHT22;14844;51.302;6.354;2022-10-16T01:06:39;12.10;99.90
27376;DHT22;14844;51.302;6.354;2022-10-16T01:09:15;12.00;99.90
27376;DHT22;14844;51.302;6.354;2022-10-16T01:11:49;12.00;99.90
27376;DHT22;14844;51.302;6.354;2022-10-16T01:16:56;12.00;99.90
27376;DHT22;14844;51.302;6.354;2022-10-16T01:19:57;11.90;99.90
27376;DHT22;14844;51.302;6.354;2022-10-16T01:25:36;11.90;99.90
27376;DHT22;14844;51.302;6.354;2022-10-16T01:28:06;11.90;99.90
27376;DHT22;14844;51.302;6.354;2022-10-16T01:30:36;11.90;99.90
27376;DHT22;14844;51.302;6.354;2022-10-16T01:33:08;11.80;99.90
27376;DHT22;14844;51.302;6.354;2022-10-16T01:35:38;11.70;99.90
27376;DHT22;14844;51.302;6.354;2022-10-16T01:38:19;11.70;99.90
27376;DHT22;14844;51.302;6.354;2022-10-16T01:40:51;11.70;99.90
27376;DHT22;14844;51.302;6.354;2022-10-16T01:43:27;11.60;99.90
27376;DHT22;14844;51.302;6.354;2022-10-16T01:45:56;11.60;99.90
27376;DHT22;14844;51.302;6.354;2022-10-16T01:48:23;11.60;99.90
27376;DHT22;14844;51.302;6.354;2022-10-16T01:50:57;11.60;99.90
27376;DHT22;14844;51.302;6.354;2022-10-16T01:53:24;11.70;99.90
27376;DHT22;14844;51.302;6.354;2022-10-16T01:55:52;11.70;99.90
27376;DHT22;14844;51.302;6.354;2022-10-16T01:58:21;11.80;99.90
27376;DHT22;14844;51.302;6.354;2022-10-16T02:00:47;11.90;99.90
27376;DHT22;14844;51.302;6.354;2022-10-16T02:03:16;11.90;99.90
27376;DHT22;14844;51.302;6.354;2022-10-16T02:05:49;11.90;99.90
27376;DHT22;14844;51.302;6.354;2022-10-16T02:08:16;11.80;99.90
27376;DHT22;14844;51.302;6.354;2022-10-16T02:10:41;11.80;99.90
27376;DHT22;14844;51.302;6.354;2022-10-16T02:13:15;11.70;99.90
27376;DHT22;14844;51.302;6.354;2022-10-16T02:15:42;11.80;99.90
27376;DHT22;14844;51.302;6.354;2022-10-16T02:18:08;11.70;99.90
27376;DHT22;14844;51.302;6.354;2022-10-16T02:26:52;11.70;99.90
27376;DHT22;14844;51.302;6.354;2022-10-16T02:29:23;11.80;99.90
27376;DHT22;14844;51.302;6.354;2022-10-16T02:31:54;11.70;99.90
27376;DHT22;14844;51.302;6.354;2022-10-16T02:34:21;11.80;99.90
27376;DHT22;14844;51.302;6.354;2022-10-16T02:36:50;11.90;99.90
27376;DHT22;14844;51.302;6.354;2022-10-16T02:39:16;11.90;99.90
27376;DHT22;14844;51.302;6.354;2022-10-16T02:41:43;11.90;99.90
27376;DHT22;14844;51.302;6.354;2022-10-16T02:44:09;11.90;99.90
27376;DHT22;14844;51.302;6.354;2022-10-16T02:46:34;12.00;99.90
27376;DHT22;14844;51.302;6.354;2022-10-16T02:49:00;12.00;99.90
27376;DHT22;14844;51.302;6.354;2022-10-16T02:51:25;12.00;99.90
27376;DHT22;14844;51.302;6.354;2022-10-16T02:53:51;12.00;99.90
27376;DHT22;14844;51.302;6.354;2022-10-16T02:56:16;12.00;99.90
27376;DHT22;14844;51.302;6.354;2022-10-16T02:58:42;12.00;99.90
27376;DHT22;14844;51.302;6.354;2022-10-16T03:01:07;12.00;99.90
27376;DHT22;14844;51.302;6.354;2022-10-16T03:03:33;12.00;99.90
27376;DHT22;14844;51.302;6.354;2022-10-16T03:05:58;12.00;99.90
27376;DHT22;14844;51.302;6.354;2022-10-16T03:08:24;12.10;99.90
27376;DHT22;14844;51.302;6.354;2022-10-16T03:10:51;12.00;99.90
27376;DHT22;14844;51.302;6.354;2022-10-16T03:13:16;12.00;99.90
27376;DHT22;14844;51.302;6.354;2022-10-16T03:15:43;12.00;99.90
27376;DHT22;14844;51.302;6.354;2022-10-16T03:18:08;12.00;99.90
27376;DHT22;14844;51.302;6.354;2022-10-16T03:20:34;12.10;99.90
27376;DHT22;14844;51.302;6.354;2022-10-16T03:22:59;12.10;99.90
27376;DHT22;14844;51.302;6.354;2022-10-16T03:25:25;12.00;99.90
27376;DHT22;14844;51.302;6.354;2022-10-16T03:27:50;12.00;99.90
27376;DHT22;14844;51.302;6.354;2022-10-16T03:30:16;12.00;99.90
27376;DHT22;14844;51.302;6.354;2022-10-16T03:32:43;12.00;99.90
27376;DHT22;14844;51.302;6.354;2022-10-16T03:35:08;11.90;99.90
27376;DHT22;14844;51.302;6.354;2022-10-16T03:37:34;11.90;99.90
27376;DHT22;14844;51.302;6.354;2022-10-16T03:39:59;11.80;99.90
27376;DHT22;14844;51.302;6.354;2022-10-16T03:42:25;11.80;99.90
27376;DHT22;14844;51.302;6.354;2022-10-16T03:44:50;11.70;99.90
27376;DHT22;14844;51.302;6.354;2022-10-16T03:47:16;11.80;99.90
27376;DHT22;14844;51.302;6.354;2022-10-16T03:49:45;11.80;99.90
27376;DHT22;14844;51.302;6.354;2022-10-16T03:52:11;11.80;99.90
27376;DHT22;14844;51.302;6.354;2022-10-16T03:54:36;11.80;99.90
27376;DHT22;14844;51.302;6.354;2022-10-16T03:57:02;11.70;99.90
27376;DHT22;14844;51.302;6.354;2022-10-16T03:59:27;11.80;99.90
27376;DHT22;14844;51.302;6.354;2022-10-16T04:01:53;11.80;99.90
27376;DHT22;14844;51.302;6.354;2022-10-16T04:04:18;11.80;99.90
27376;DHT22;14844;51.302;6.354;2022-10-16T04:06:44;11.70;99.90
27376;DHT22;14844;51.302;6.354;2022-10-16T04:09:09;11.70;99.90
27376;DHT22;14844;51.302;6.354;2022-10-16T04:11:35;11.80;99.90
27376;DHT22;14844;51.302;6.354;2022-10-16T04:14:01;11.70;99.90
27376;DHT22;14844;51.302;6.354;2022-10-16T04:16:26;11.80;99.90
27376;DHT22;14844;51.302;6.354;2022-10-16T04:18:52;11.70;99.90
27376;DHT22;14844;51.302;6.354;2022-10-16T04:21:17;11.80;99.90
27376;DHT22;14844;51.302;6.354;2022-10-16T04:23:43;11.70;99.90
27376;DHT22;14844;51.302;6.354;2022-10-16T04:26:08;11.70;99.90
27376;DHT22;14844;51.302;6.354;2022-10-16T04:28:35;11.70;99.90
27376;DHT22;14844;51.302;6.354;2022-10-16T04:31:04;11.70;99.90
27376;DHT22;14844;51.302;6.354;2022-10-16T04:33:29;11.70;99.90
27376;DHT22;14844;51.302;6.354;2022-10-16T04:35:59;11.70;99.90
27376;DHT22;14844;51.302;6.354;2022-10-16T04:38:24;11.60;99.90
27376;DHT22;14844;51.302;6.354;2022-10-16T04:40:50;11.70;99.90
27376;DHT22;14844;51.302;6.354;2022-10-16T04:43:16;11.80;99.90
27376;DHT22;14844;51.302;6.354;2022-10-16T04:45:41;11.80;99.90
27376;DHT22;14844;51.302;6.354;2022-10-16T04:48:07;11.80;99.90
27376;DHT22;14844;51.302;6.354;2022-10-16T04:50:32;11.80;99.90
27376;DHT22;14844;51.302;6.354;2022-10-16T04:52:58;11.80;99.90
27376;DHT22;14844;51.302;6.354;2022-10-16T04:55:24;11.80;99.90
27376;DHT22;14844;51.302;6.354;2022-10-16T04:57:50;11.90;99.90
27376;DHT22;14844;51.302;6.354;2022-10-16T05:00:16;12.00;99.90
27376;DHT22;14844;51.302;6.354;2022-10-16T05:02:41;12.00;99.90
27376;DHT22;14844;51.302;6.354;2022-10-16T05:05:07;12.00;99.90
27376;DHT22;14844;51.302;6.354;2022-10-16T05:07:33;12.10;99.90
27376;DHT22;14844;51.302;6.354;2022-10-16T05:09:58;12.10;99.90
27376;DHT22;14844;51.302;6.354;2022-10-16T05:12:24;12.20;99.90
27376;DHT22;14844;51.302;6.354;2022-10-16T05:14:49;12.20;99.90
27376;DHT22;14844;51.302;6.354;2022-10-16T05:17:15;12.20;99.90
27376;DHT22;14844;51.302;6.354;2022-10-16T05:19:40;12.20;99.90
27376;DHT22;14844;51.302;6.354;2022-10-16T05:22:06;12.10;99.90
27376;DHT22;14844;51.302;6.354;2022-10-16T05:24:31;12.20;99.90
27376;DHT22;14844;51.302;6.354;2022-10-16T05:26:57;12.20;99.90
27376;DHT22;14844;51.302;6.354;2022-10-16T05:29:22;12.20;99.90
27376;DHT22;14844;51.302;6.354;2022-10-16T05:31:50;12.20;99.90
27376;DHT22;14844;51.302;6.354;2022-10-16T05:34:17;12.20;99.90
27376;DHT22;14844;51.302;6.354;2022-10-16T05:36:42;12.20;99.90
27376;DHT22;14844;51.302;6.354;2022-10-16T05:39:10;12.30;99.90
27376;DHT22;14844;51.302;6.354;2022-10-16T05:41:36;12.30;99.90
27376;DHT22;14844;51.302;6.354;2022-10-16T05:44:04;12.20;99.90
27376;DHT22;14844;51.302;6.354;2022-10-16T05:46:30;12.30;99.90
27376;DHT22;14844;51.302;6.354;2022-10-16T05:48:55;12.20;99.90
27376;DHT22;14844;51.302;6.354;2022-10-16T05:51:21;12.20;99.90
27376;DHT22;14844;51.302;6.354;2022-10-16T05:53:46;12.10;99.90
27376;DHT22;14844;51.302;6.354;2022-10-16T05:56:12;12.10;99.90
27376;DHT22;14844;51.302;6.354;2022-10-16T05:58:38;12.10;99.90
27376;DHT22;14844;51.302;6.354;2022-10-16T06:01:14;12.10;99.90
27376;DHT22;14844;51.302;6.354;2022-10-16T06:03:40;12.10;99.90
27376;DHT22;14844;51.302;6.354;2022-10-16T06:06:20;12.10;99.90
27376;DHT22;14844;51.302;6.354;2022-10-16T06:08:47;12.20;99.90
27376;DHT22;14844;51.302;6.354;2022-10-16T06:11:15;12.30;99.90
27376;DHT22;14844;51.302;6.354;2022-10-16T06:13:41;12.20;99.90
27376;DHT22;14844;51.302;6.354;2022-10-16T06:16:09;12.20;99.90
27376;DHT22;14844;51.302;6.354;2022-10-16T06:18:34;12.30;99.90
27376;DHT22;14844;51.302;6.354;2022-10-16T06:21:10;12.20;99.90
27376;DHT22;14844;51.302;6.354;2022-10-16T06:23:36;12.20;99.90
27376;DHT22;14844;51.302;6.354;2022-10-16T06:26:06;12.30;99.90
27376;DHT22;14844;51.302;6.354;2022-10-16T06:28:32;12.30;99.90
27376;DHT22;14844;51.302;6.354;2022-10-16T06:31:02;12.30;99.90
27376;DHT22;14844;51.302;6.354;2022-10-16T06:33:28;12.30;99.90
27376;DHT22;14844;51.302;6.354;2022-10-16T06:35:53;12.30;99.90
27376;DHT22;14844;51.302;6.354;2022-10-16T06:38:19;12.30;99.90
27376;DHT22;14844;51.302;6.354;2022-10-16T06:40:44;12.30;99.90
27376;DHT22;14844;51.302;6.354;2022-10-16T06:43:10;12.30;99.90
27376;DHT22;14844;51.302;6.354;2022-10-16T06:45:35;12.30;99.90
27376;DHT22;14844;51.302;6.354;2022-10-16T06:48:02;12.30;99.90
27376;DHT22;14844;51.302;6.354;2022-10-16T06:50:28;12.30;99.90
27376;DHT22;14844;51.302;6.354;2022-10-16T06:52:53;12.30;99.90
27376;DHT22;14844;51.302;6.354;2022-10-16T06:55:19;12.30;99.90
27376;DHT22;14844;51.302;6.354;2022-10-16T06:57:47;12.30;99.90
27376;DHT22;14844;51.302;6.354;2022-10-16T07:00:12;12.40;99.90
27376;DHT22;14844;51.302;6.354;2022-10-16T07:02:38;12.40;99.90
27376;DHT22;14844;51.302;6.354;2022-10-16T07:05:04;12.40;99.90
27376;DHT22;14844;51.302;6.354;2022-10-16T07:07:29;12.40;99.90
27376;DHT22;14844;51.302;6.354;2022-10-16T07:09:55;12.40;99.90
27376;DHT22;14844;51.302;6.354;2022-10-16T07:12:20;12.40;99.90
27376;DHT22;14844;51.302;6.354;2022-10-16T07:14:46;12.30;99.90
27376;DHT22;14844;51.302;6.354;2022-10-16T07:17:11;12.30;99.90
27376;DHT22;14844;51.302;6.354;2022-10-16T07:19:37;12.40;99.90
27376;DHT22;14844;51.302;6.354;2022-10-16T07:22:04;12.60;99.90
27376;DHT22;14844;51.302;6.354;2022-10-16T07:24:30;12.70;99.90
27376;DHT22;14844;51.302;6.354;2022-10-16T07:26:55;12.80;99.90
27376;DHT22;14844;51.302;6.354;2022-10-16T07:29:21;12.80;99.90
27376;DHT22;14844;51.302;6.354;2022-10-16T07:31:48;12.90;99.90
27376;DHT22;14844;51.302;6.354;2022-10-16T07:34:15;13.10;99.90
27376;DHT22;14844;51.302;6.354;2022-10-16T07:36:41;13.30;99.90
27376;DHT22;14844;51.302;6.354;2022-10-16T07:39:06;13.50;99.90
27376;DHT22;14844;51.302;6.354;2022-10-16T07:41:32;13.70;99.90
27376;DHT22;14844;51.302;6.354;2022-10-16T07:43:58;13.90;99.90
27376;DHT22;14844;51.302;6.354;2022-10-16T07:46:27;14.00;99.90
27376;DHT22;14844;51.302;6.354;2022-10-16T07:48:53;14.20;99.90
27376;DHT22;14844;51.302;6.354;2022-10-16T07:51:21;14.30;99.90
27376;DHT22;14844;51.302;6.354;2022-10-16T07:53:47;14.40;99.90
27376;DHT22;14844;51.302;6.354;2022-10-16T07:56:13;14.50;99.90
27376;DHT22;14844;51.302;6.354;2022-10-16T07:58:39;14.60;99.90
27376;DHT22;14844;51.302;6.354;2022-10-16T08:01:13;14.70;99.90
27376;DHT22;14844;51.302;6.354;2022-10-16T08:03:42;14.80;99.90
27376;DHT22;14844;51.302;6.354;2022-10-16T08:06:09;15.00;99.90
27376;DHT22;14844;51.302;6.354;2022-10-16T08:08:35;15.10;99.90
27376;DHT22;14844;51.302;6.354;2022-10-16T08:11:00;15.10;99.90
27376;DHT22;14844;51.302;6.354;2022-10-16T08:13:29;15.30;99.90
27376;DHT22;14844;51.302;6.354;2022-10-16T08:15:55;15.30;99.90
27376;DHT22;14844;51.302;6.354;2022-10-16T08:18:21;15.30;99.90
27376;DHT22;14844;51.302;6.354;2022-10-16T08:20:47;15.50;99.90
27376;DHT22;14844;51.302;6.354;2022-10-16T08:23:12;15.60;99.90
27376;DHT22;14844;51.302;6.354;2022-10-16T08:25:39;15.50;99.90
27376;DHT22;14844;51.302;6.354;2022-10-16T08:28:09;15.60;99.90
27376;DHT22;14844;51.302;6.354;2022-10-16T08:30:35;15.70;99.90
27376;DHT22;14844;51.302;6.354;2022-10-16T08:33:01;15.80;99.90
27376;DHT22;14844;51.302;6.354;2022-10-16T08:35:27;16.00;99.90
27376;DHT22;14844;51.302;6.354;2022-10-16T08:37:53;16.10;99.90
27376;DHT22;14844;51.302;6.354;2022-10-16T08:48:20;16.60;99.90
27376;DHT22;14844;51.302;6.354;2022-10-16T08:50:50;16.70;99.90
27376;DHT22;14844;51.302;6.354;2022-10-16T08:53:27;16.70;99.90
27376;DHT22;14844;51.302;6.354;2022-10-16T08:55:54;16.80;99.90
27376;DHT22;14844;51.302;6.354;2022-10-16T08:58:22;16.90;99.90
27376;DHT22;14844;51.302;6.354;2022-10-16T09:00:52;16.90;99.90
27376;DHT22;14844;51.302;6.354;2022-10-16T09:03:29;16.90;99.90
27376;DHT22;14844;51.302;6.354;2022-10-16T09:06:10;16.80;99.90
27376;DHT22;14844;51.302;6.354;2022-10-16T09:14:15;17.00;99.90
27376;DHT22;14844;51.302;6.354;2022-10-16T09:16:48;17.10;99.90
27376;DHT22;14844;51.302;6.354;2022-10-16T09:19:24;17.30;99.90
27376;DHT22;14844;51.302;6.354;2022-10-16T09:21:51;17.30;99.90
27376;DHT22;14844;51.302;6.354;2022-10-16T09:24:21;17.40;99.90
27376;DHT22;14844;51.302;6.354;2022-10-16T09:26:47;17.30;99.90
27376;DHT22;14844;51.302;6.354;2022-10-16T09:29:18;17.40;99.90
27376;DHT22;14844;51.302;6.354;2022-10-16T09:31:48;17.40;99.90
27376;DHT22;14844;51.302;6.354;2022-10-16T09:34:36;17.60;99.90
27376;DHT22;14844;51.302;6.354;2022-10-16T09:37:10;17.70;99.90
27376;DHT22;14844;51.302;6.354;2022-10-16T09:39:47;17.70;99.90
27376;DHT22;14844;51.302;6.354;2022-10-16T09:42:26;17.80;99.90
27376;DHT22;14844;51.302;6.354;2022-10-16T09:44:53;17.90;99.90
27376;DHT22;14844;51.302;6.354;2022-10-16T09:47:24;18.00;99.90
27376;DHT22;14844;51.302;6.354;2022-10-16T09:50:05;18.00;99.90
27376;DHT22;14844;51.302;6.354;2022-10-16T09:52:44;18.00;99.90
27376;DHT22;14844;51.302;6.354;2022-10-16T09:55:18;17.90;99.90
27376;DHT22;14844;51.302;6.354;2022-10-16T09:57:53;18.00;99.90
27376;DHT22;14844;51.302;6.354;2022-10-16T10:00:20;18.10;99.90
27376;DHT22;14844;51.302;6.354;2022-10-16T10:02:46;18.20;99.90
27376;DHT22;14844;51.302;6.354;2022-10-16T10:05:21;18.40;99.90
27376;DHT22;14844;51.302;6.354;2022-10-16T10:07:54;18.60;99.90
27376;DHT22;14844;51.302;6.354;2022-10-16T10:10:26;18.70;99.90
27376;DHT22;14844;51.302;6.354;2022-10-16T10:12:53;18.70;99.90
27376;DHT22;14844;51.302;6.354;2022-10-16T10:15:19;18.60;99.90
27376;DHT22;14844;51.302;6.354;2022-10-16T10:17:54;18.40;99.90
27376;DHT22;14844;51.302;6.354;2022-10-16T10:22:54;18.60;99.90
27376;DHT22;14844;51.302;6.354;2022-10-16T10:40:11;19.30;99.90
27376;DHT22;14844;51.302;6.354;2022-10-16T10:45:27;19.00;99.90
27376;DHT22;14844;51.302;6.354;2022-10-16T10:47:59;18.90;99.90
27376;DHT22;14844;51.302;6.354;2022-10-16T10:51:04;19.00;99.90
27376;DHT22;14844;51.302;6.354;2022-10-16T11:04:44;19.80;99.90
27376;DHT22;14844;51.302;6.354;2022-10-16T11:07:39;19.60;99.90
27376;DHT22;14844;51.302;6.354;2022-10-16T11:10:21;19.60;99.90
27376;DHT22;14844;51.302;6.354;2022-10-16T11:12:52;19.70;99.90
27376;DHT22;14844;51.302;6.354;2022-10-16T11:15:33;19.80;99.90
27376;DHT22;14844;51.302;6.354;2022-10-16T11:18:08;19.80;99.90
27376;DHT22;14844;51.302;6.354;2022-10-16T11:20:57;19.90;99.90
27376;DHT22;14844;51.302;6.354;2022-10-16T11:23:47;19.90;99.90
27376;DHT22;14844;51.302;6.354;2022-10-16T11:26:23;19.90;99.90
27376;DHT22;14844;51.302;6.354;2022-10-16T11:28:55;20.10;99.90
27376;DHT22;14844;51.302;6.354;2022-10-16T11:31:50;20.50;99.90
27376;DHT22;14844;51.302;6.354;2022-10-16T11:39:20;21.40;99.90
27376;DHT22;14844;51.302;6.354;2022-10-16T11:41:55;21.40;99.90
27376;DHT22;14844;51.302;6.354;2022-10-16T11:47:09;21.20;99.90
27376;DHT22;14844;51.302;6.354;2022-10-16T11:49:39;21.10;99.90
27376;DHT22;14844;51.302;6.354;2022-10-16T11:54:48;20.80;99.90
27376;DHT22;14844;51.302;6.354;2022-10-16T11:57:22;20.60;99.90
27376;DHT22;14844;51.302;6.354;2022-10-16T11:59:57;20.40;99.90
27376;DHT22;14844;51.302;6.354;2022-10-16T12:02:33;20.10;99.90
27376;DHT22;14844;51.302;6.354;2022-10-16T12:05:28;19.70;99.90
27376;DHT22;14844;51.302;6.354;2022-10-16T12:10:28;19.40;99.90
27376;DHT22;14844;51.302;6.354;2022-10-16T12:12:54;19.40;99.90
27376;DHT22;14844;51.302;6.354;2022-10-16T12:15:23;19.50;99.90
27376;DHT22;14844;51.302;6.354;2022-10-16T12:17:50;19.60;99.90
27376;DHT22;14844;51.302;6.354;2022-10-16T12:20:31;19.70;99.90
27376;DHT22;14844;51.302;6.354;2022-10-16T12:23:07;19.90;99.90
27376;DHT22;14844;51.302;6.354;2022-10-16T12:25:54;19.90;99.90
27376;DHT22;14844;51.302;6.354;2022-10-16T12:28:27;20.00;99.90
27376;DHT22;14844;51.302;6.354;2022-10-16T12:30:56;20.20;99.90
27376;DHT22;14844;51.302;6.354;2022-10-16T12:33:25;20.20;99.90
27376;DHT22;14844;51.302;6.354;2022-10-16T12:35:51;19.90;99.90
27376;DHT22;14844;51.302;6.354;2022-10-16T12:38:37;20.20;99.90
27376;DHT22;14844;51.302;6.354;2022-10-16T12:43:57;20.60;99.90
27376;DHT22;14844;51.302;6.354;2022-10-16T12:49:06;20.50;99.90
27376;DHT22;14844;51.302;6.354;2022-10-16T12:54:19;19.90;99.90
27376;DHT22;14844;51.302;6.354;2022-10-16T13:02:56;19.50;99.90
27376;DHT22;14844;51.302;6.354;2022-10-16T13:05:52;19.60;99.90
27376;DHT22;14844;51.302;6.354;2022-10-16T13:08:43;19.70;99.90
27376;DHT22;14844;51.302;6.354;2022-10-16T13:22:29;19.80;99.90
27376;DHT22;14844;51.302;6.354;2022-10-16T13:27:55;20.40;99.90
27376;DHT22;14844;51.302;6.354;2022-10-16T13:30:30;20.60;99.90
27376;DHT22;14844;51.302;6.354;2022-10-16T13:33:12;20.80;99.90
27376;DHT22;14844;51.302;6.354;2022-10-16T13:35:45;21.00;99.90
27376;DHT22;14844;51.302;6.354;2022-10-16T13:38:15;21.10;99.90
27376;DHT22;14844;51.302;6.354;2022-10-16T13:41:14;21.30;99.90
27376;DHT22;14844;51.302;6.354;2022-10-16T13:43:46;21.60;99.90
27376;DHT22;14844;51.302;6.354;2022-10-16T13:46:16;21.60;99.90
27376;DHT22;14844;51.302;6.354;2022-10-16T13:48:42;21.60;99.90
27376;DHT22;14844;51.302;6.354;2022-10-16T13:51:18;21.40;99.90
27376;DHT22;14844;51.302;6.354;2022-10-16T13:53:45;21.10;99.90
27376;DHT22;14844;51.302;6.354;2022-10-16T13:56:12;20.80;99.90
27376;DHT22;14844;51.302;6.354;2022-10-16T13:58:39;20.60;99.90
27376;DHT22;14844;51.302;6.354;2022-10-16T14:04:06;20.70;99.90
27376;DHT22;14844;51.302;6.354;2022-10-16T14:06:33;20.70;99.90
27376;DHT22;14844;51.302;6.354;2022-10-16T14:09:22;20.80;99.90
27376;DHT22;14844;51.302;6.354;2022-10-16T14:11:50;20.80;99.90
27376;DHT22;14844;51.302;6.354;2022-10-16T14:14:19;20.70;99.90
27376;DHT22;14844;51.302;6.354;2022-10-16T14:16:45;20.70;99.90
27376;DHT22;14844;51.302;6.354;2022-10-16T14:19:29;20.70;99.90
27376;DHT22;14844;51.302;6.354;2022-10-16T14:21:56;20.60;99.90
27376;DHT22;14844;51.302;6.354;2022-10-16T14:24:32;20.50;99.90
27376;DHT22;14844;51.302;6.354;2022-10-16T14:26:59;20.40;99.90
27376;DHT22;14844;51.302;6.354;2022-10-16T14:29:27;20.30;99.90
27376;DHT22;14844;51.302;6.354;2022-10-16T14:32:02;20.30;99.90
27376;DHT22;14844;51.302;6.354;2022-10-16T14:34:32;20.20;99.90
27376;DHT22;14844;51.302;6.354;2022-10-16T14:37:16;20.00;99.90
27376;DHT22;14844;51.302;6.354;2022-10-16T14:39:49;19.90;99.90
27376;DHT22;14844;51.302;6.354;2022-10-16T14:42:17;20.00;99.90
27376;DHT22;14844;51.302;6.354;2022-10-16T14:44:44;19.90;99.90
27376;DHT22;14844;51.302;6.354;2022-10-16T14:47:13;19.90;99.90
27376;DHT22;14844;51.302;6.354;2022-10-16T14:49:41;19.70;99.90
27376;DHT22;14844;51.302;6.354;2022-10-16T14:52:11;19.50;99.90
27376;DHT22;14844;51.302;6.354;2022-10-16T14:54:37;19.30;99.90
27376;DHT22;14844;51.302;6.354;2022-10-16T14:57:03;19.20;99.90
27376;DHT22;14844;51.302;6.354;2022-10-16T14:59:36;19.10;99.90
27376;DHT22;14844;51.302;6.354;2022-10-16T15:04:47;19.10;99.90
27376;DHT22;14844;51.302;6.354;2022-10-16T15:07:13;19.20;99.90
27376;DHT22;14844;51.302;6.354;2022-10-16T15:09:38;19.20;99.90
27376;DHT22;14844;51.302;6.354;2022-10-16T15:12:04;19.10;99.90
27376;DHT22;14844;51.302;6.354;2022-10-16T15:14:30;19.10;99.90
27376;DHT22;14844;51.302;6.354;2022-10-16T15:16:57;19.10;99.90
27376;DHT22;14844;51.302;6.354;2022-10-16T15:19:22;19.20;99.90
27376;DHT22;14844;51.302;6.354;2022-10-16T15:21:48;19.10;99.90
27376;DHT22;14844;51.302;6.354;2022-10-16T15:24:14;19.00;99.90
27376;DHT22;14844;51.302;6.354;2022-10-16T15:26:40;19.00;99.90
27376;DHT22;14844;51.302;6.354;2022-10-16T15:29:06;18.90;99.90
27376;DHT22;14844;51.302;6.354;2022-10-16T15:31:32;18.90;99.90
27376;DHT22;14844;51.302;6.354;2022-10-16T15:33:58;18.80;99.90
27376;DHT22;14844;51.302;6.354;2022-10-16T15:36:36;18.70;99.90
27376;DHT22;14844;51.302;6.354;2022-10-16T15:39:15;18.70;99.90
27376;DHT22;14844;51.302;6.354;2022-10-16T15:41:42;18.60;99.90
27376;DHT22;14844;51.302;6.354;2022-10-16T15:44:08;18.50;99.90
27376;DHT22;14844;51.302;6.354;2022-10-16T15:46:33;18.40;99.90
27376;DHT22;14844;51.302;6.354;2022-10-16T15:48:59;18.30;99.90
27376;DHT22;14844;51.302;6.354;2022-10-16T15:51:26;18.20;99.90
27376;DHT22;14844;51.302;6.354;2022-10-16T15:53:58;18.10;99.90
27376;DHT22;14844;51.302;6.354;2022-10-16T15:56:26;18.00;99.90
27376;DHT22;14844;51.302;6.354;2022-10-16T15:58:53;18.00;99.90
27376;DHT22;14844;51.302;6.354;2022-10-16T16:01:19;17.90;99.90
27376;DHT22;14844;51.302;6.354;2022-10-16T16:03:45;17.70;99.90
27376;DHT22;14844;51.302;6.354;2022-10-16T16:06:12;17.80;99.90
27376;DHT22;14844;51.302;6.354;2022-10-16T16:08:38;17.70;99.90
27376;DHT22;14844;51.302;6.354;2022-10-16T16:11:05;17.60;99.90
27376;DHT22;14844;51.302;6.354;2022-10-16T16:13:31;17.50;99.90
27376;DHT22;14844;51.302;6.354;2022-10-16T16:15:57;17.30;99.90
27376;DHT22;14844;51.302;6.354;2022-10-16T16:18:23;17.20;99.90
27376;DHT22;14844;51.302;6.354;2022-10-16T16:20:52;17.10;99.90
27376;DHT22;14844;51.302;6.354;2022-10-16T16:23:18;17.00;99.90
27376;DHT22;14844;51.302;6.354;2022-10-16T16:25:44;16.90;99.90
27376;DHT22;14844;51.302;6.354;2022-10-16T16:28:10;16.70;99.90
27376;DHT22;14844;51.302;6.354;2022-10-16T16:30:39;16.80;99.90
27376;DHT22;14844;51.302;6.354;2022-10-16T16:33:05;16.80;99.90
27376;DHT22;14844;51.302;6.354;2022-10-16T16:35:30;16.70;99.90
27376;DHT22;14844;51.302;6.354;2022-10-16T16:37:56;16.70;99.90
27376;DHT22;14844;51.302;6.354;2022-10-16T16:40:21;16.70;99.90
27376;DHT22;14844;51.302;6.354;2022-10-16T16:42:50;16.50;99.90
27376;DHT22;14844;51.302;6.354;2022-10-16T16:45:15;16.40;99.90
27376;DHT22;14844;51.302;6.354;2022-10-16T16:47:41;16.30;99.90
27376;DHT22;14844;51.302;6.354;2022-10-16T16:50:06;16.00;99.90
27376;DHT22;14844;51.302;6.354;2022-10-16T16:52:34;15.90;99.90
27376;DHT22;14844;51.302;6.354;2022-10-16T16:54:59;15.70;99.90
27376;DHT22;14844;51.302;6.354;2022-10-16T16:57:25;15.60;99.90
27376;DHT22;14844;51.302;6.354;2022-10-16T16:59:50;15.50;99.90
27376;DHT22;14844;51.302;6.354;2022-10-16T17:02:17;15.50;99.90
27376;DHT22;14844;51.302;6.354;2022-10-16T17:04:42;15.40;99.90
27376;DHT22;14844;51.302;6.354;2022-10-16T17:07:08;15.40;99.90
27376;DHT22;14844;51.302;6.354;2022-10-16T17:09:33;15.40;99.90
27376;DHT22;14844;51.302;6.354;2022-10-16T17:11:59;15.30;99.90
27376;DHT22;14844;51.302;6.354;2022-10-16T17:14:24;15.30;99.90
27376;DHT22;14844;51.302;6.354;2022-10-16T17:16:52;15.30;99.90
27376;DHT22;14844;51.302;6.354;2022-10-16T17:19:18;15.20;99.90
27376;DHT22;14844;51.302;6.354;2022-10-16T17:21:45;15.20;99.90
27376;DHT22;14844;51.302;6.354;2022-10-16T17:24:12;15.20;99.90
27376;DHT22;14844;51.302;6.354;2022-10-16T17:26:38;15.20;99.90